SBU255 TFFG-TFFJ
Flight info
| Callsign | SBU255 |
|---|---|
| Flight time | 0h 8m |
| Altitude | 3000 |
| Route | PJM |
| Aircraft | C208/L-SDFGRY/C |
Departure
| Time | 2026-04-21 13:54 |
|---|---|
| Airport | Grand Case-l'Espérance Airport (TFFG) |
Arrival
| Time | 2026-04-21 14:03 |
|---|---|
| Airport | St. Jean Airport (TFFJ) |
| Time | Latitude | Longitude | Altitude | Speed | Heading |
|---|---|---|---|---|---|
| 2026-04-21 13:39 | 18.10150 | -63.04804 | 17 ft | 0 kts | 105° |
| 2026-04-21 13:51 | 18.10148 | -63.04802 | 17 ft | 2 kts | 147° |
| 2026-04-21 13:52 | 18.10121 | -63.04827 | 17 ft | 7 kts | 265° |
| 2026-04-21 13:52 | 18.10109 | -63.04872 | 16 ft | 8 kts | 201° |
| 2026-04-21 13:52 | 18.10062 | -63.04905 | 13 ft | 9 kts | 264° |
| 2026-04-21 13:52 | 18.10085 | -63.05002 | 12 ft | 16 kts | 286° |
| 2026-04-21 13:53 | 18.10118 | -63.05112 | 13 ft | 18 kts | 288° |
| 2026-04-21 13:53 | 18.10155 | -63.05207 | 13 ft | 8 kts | 286° |
| 2026-04-21 13:53 | 18.10144 | -63.05204 | 13 ft | 2 kts | 106° |
| 2026-04-21 13:53 | 18.10106 | -63.05079 | 13 ft | 44 kts | 107° |
| 2026-04-21 13:54 | 18.09971 | -63.04608 | 90 ft | 79 kts | 101° |
| 2026-04-21 13:54 | 18.09853 | -63.04036 | 363 ft | 85 kts | 99° |
| 2026-04-21 13:54 | 18.09729 | -63.03357 | 628 ft | 100 kts | 107° |
| 2026-04-21 13:54 | 18.09309 | -63.02719 | 894 ft | 115 kts | 127° |
| 2026-04-21 13:55 | 18.08684 | -63.02137 | 1196 ft | 123 kts | 136° |
| 2026-04-21 13:55 | 18.08005 | -63.01557 | 1488 ft | 133 kts | 137° |
| 2026-04-21 13:55 | 18.07230 | -63.00933 | 1570 ft | 145 kts | 140° |
| 2026-04-21 13:55 | 18.06384 | -63.00304 | 1575 ft | 152 kts | 140° |
| 2026-04-21 13:56 | 18.05525 | -62.99637 | 1594 ft | 153 kts | 136° |
| 2026-04-21 13:56 | 18.04705 | -62.98927 | 1627 ft | 152 kts | 135° |
| 2026-04-21 13:56 | 18.03899 | -62.98202 | 1632 ft | 153 kts | 135° |
| 2026-04-21 13:56 | 18.03085 | -62.97475 | 1630 ft | 154 kts | 135° |
| 2026-04-21 13:57 | 18.02273 | -62.96732 | 1630 ft | 155 kts | 135° |
| 2026-04-21 13:57 | 18.01435 | -62.96017 | 1632 ft | 156 kts | 138° |
| 2026-04-21 13:57 | 18.00591 | -62.95296 | 1519 ft | 161 kts | 136° |
| 2026-04-21 13:57 | 17.99707 | -62.94589 | 1502 ft | 159 kts | 141° |
| 2026-04-21 13:58 | 17.98787 | -62.93941 | 1512 ft | 159 kts | 142° |
| 2026-04-21 13:58 | 17.97858 | -62.93311 | 1529 ft | 159 kts | 142° |
| 2026-04-21 13:58 | 17.96925 | -62.92696 | 1553 ft | 158 kts | 145° |
| 2026-04-21 13:58 | 17.95976 | -62.92109 | 1507 ft | 159 kts | 146° |
| 2026-04-21 13:59 | 17.95027 | -62.91526 | 1467 ft | 158 kts | 146° |
| 2026-04-21 13:59 | 17.94075 | -62.90943 | 1451 ft | 159 kts | 144° |
| 2026-04-21 13:59 | 17.93129 | -62.90343 | 1451 ft | 159 kts | 143° |
| 2026-04-21 13:59 | 17.92186 | -62.89723 | 1431 ft | 159 kts | 143° |
| 2026-04-21 14:00 | 17.91368 | -62.89161 | 1414 ft | 122 kts | 142° |
| 2026-04-21 14:00 | 17.90734 | -62.88724 | 1410 ft | 97 kts | 141° |
| 2026-04-21 14:00 | 17.90249 | -62.88320 | 1290 ft | 82 kts | 119° |
| 2026-04-21 14:00 | 17.90177 | -62.87826 | 1134 ft | 63 kts | 82° |
| 2026-04-21 14:01 | 17.90222 | -62.87364 | 987 ft | 67 kts | 82° |
| 2026-04-21 14:01 | 17.90271 | -62.86870 | 858 ft | 67 kts | 82° |
| 2026-04-21 14:01 | 17.90297 | -62.86378 | 767 ft | 69 kts | 81° |
| 2026-04-21 14:01 | 17.90333 | -62.85879 | 607 ft | 67 kts | 79° |
| 2026-04-21 14:02 | 17.90361 | -62.85553 | 479 ft | 65 kts | 79° |
| 2026-04-21 14:02 | 17.90416 | -62.84926 | 213 ft | 69 kts | 82° |
| 2026-04-21 14:02 | 17.90438 | -62.84406 | 33 ft | 68 kts | 85° |
| 2026-04-21 14:03 | 17.90449 | -62.84068 | 14 ft | 5 kts | 242° |
| 2026-04-21 14:03 | 17.90444 | -62.84155 | 15 ft | 19 kts | 266° |
| 2026-04-21 14:03 | 17.90441 | -62.84324 | 26 ft | 22 kts | 268° |
| 2026-04-21 14:03 | 17.90411 | -62.84388 | 31 ft | 10 kts | 192° |
| 2026-04-21 14:04 | 17.90392 | -62.84452 | 35 ft | 12 kts | 264° |
| 2026-04-21 14:04 | 17.90391 | -62.84550 | 44 ft | 15 kts | 268° |
| 2026-04-21 14:04 | 17.90362 | -62.84589 | 48 ft | 6 kts | 123° |
| 2026-04-21 14:04 | 17.90367 | -62.84574 | 47 ft | 0 kts | 41° |